Aviation Digital Data Service (ADDS)

Output produced by METARs form (1310 UTC 19 January 2019)
found at http://www.aviationweather.gov/metar/data/
 
Forecast for: GABS (BAMAKO/SENOU (MI, ML)
Text: TAF GABS 191120Z 1912/2018 03008KT CAVOK
Forecast period: 1200 UTC 19 January 2019 to 1800 UTC 20 January 2019
Forecast type: FROM: standard forecast or significant change
Winds: from the NNE (30 degrees) at 9 MPH (8 knots; 4.1 m/s)
Visibility: 6 or more miles 10+ km)
Ceiling: unknown
Clouds: missing
Weather: NSW  (no significant weather)